Terminal Aerodrome Forecast
Issued by NWS Charleston, WV

Current Version | Previous Version | Graphics & Text | Print | Product List | Glossary On
Versions: 1 2 3 4 5 6 7 8 9 10 11 12 13 14 15 16 17 18 19 20 21 22
545
FTUS41 KRLX 180545
TAFBKW
TAF
KBKW 180545Z 1806/1906 22005KT P6SM SCT070
     FM181100 21006KT P6SM SHRA BKN070
      TEMPO 1811/1814 4SM SHRA OVC035
     FM181400 22008KT 5SM SHRA SCT020 BKN045
      TEMPO 1814/1818 3SM TSRA OVC015CB
     FM181800 23007KT P6SM SHRA VCTS BKN035CB
     FM182100 29009KT P6SM SHRA VCTS BKN040CB
     FM190100 29009KT P6SM SCT060=

USA.gov is the U.S. government's official web portal to all federal, state and local government web resources and services.